createdAt,value
2024-01-10T00:00:44.484Z,97004.78
2024-01-10T00:03:11.612Z,97001.72
2024-01-10T00:05:38.690Z,96997.47
2024-01-10T00:08:07.731Z,96994.78
2024-01-10T00:10:34.767Z,96988.06
2024-01-10T00:13:01.906Z,96998.00
2024-01-10T00:15:29.011Z,96997.31
2024-01-10T00:17:56.115Z,96992.16
2024-01-10T00:20:23.309Z,96991.38
2024-01-10T00:22:50.797Z,96990.53
2024-01-10T00:25:17.988Z,96997.03
2024-01-10T00:27:44.978Z,96990.34
2024-01-10T00:30:12.290Z,96992.16
2024-01-10T00:32:39.442Z,96987.16
2024-01-10T00:35:06.695Z,96988.94
2024-01-10T00:37:33.955Z,96990.63
2024-01-10T00:40:00.984Z,96985.63
2024-01-10T00:42:28.090Z,96988.19
2024-01-10T00:44:55.423Z,96985.53
2024-01-10T00:47:22.552Z,96978.75
2024-01-10T00:49:49.725Z,96977.88
2024-01-10T00:52:16.847Z,96982.09
2024-01-10T00:54:45.555Z,96981.34
2024-01-10T00:57:12.632Z,96985.41
2024-01-10T00:59:40.414Z,96982.91
2024-01-10T01:02:07.617Z,96987.91
2024-01-10T01:04:34.752Z,96988.72
2024-01-10T01:07:01.786Z,96979.63
2024-01-10T01:09:28.768Z,96980.69
2024-01-10T01:11:55.946Z,96984.28
2024-01-10T01:14:23.196Z,96992.59
2024-01-10T01:16:50.281Z,96990.09
2024-01-10T01:19:17.455Z,96988.56
2024-01-10T01:21:44.996Z,96992.59
2024-01-10T01:24:12.696Z,96992.56
2024-01-10T01:26:39.780Z,96986.78
2024-01-10T01:29:07.235Z,96993.63
2024-01-10T01:31:34.375Z,96994.47
2024-01-10T01:34:01.601Z,96995.78
2024-01-10T01:36:28.721Z,96994.03
2024-01-10T01:38:55.841Z,96982.41
2024-01-10T01:41:23.006Z,96985.06
2024-01-10T01:43:50.341Z,96988.41
2024-01-10T01:46:17.707Z,96987.69
2024-01-10T01:48:45.667Z,96993.56
2024-01-10T01:51:16.496Z,96987.72
2024-01-10T01:53:47.001Z,96986.97
2024-01-10T01:56:16.329Z,96981.16
2024-01-10T01:58:46.557Z,96983.69
2024-01-10T02:01:14.268Z,96977.84
2024-01-10T02:03:41.689Z,96973.72
2024-01-10T02:06:09.020Z,96976.28
2024-01-10T02:08:37.542Z,96979.63
2024-01-10T02:11:06.674Z,96973.94
2024-01-10T02:13:34.835Z,96978.09
2024-01-10T02:16:04.982Z,96974.00
2024-01-10T02:18:32.882Z,96973.09
2024-01-10T02:21:00.055Z,96971.44
2024-01-10T02:23:27.182Z,96972.19
2024-01-10T02:25:54.491Z,96980.63
2024-01-10T02:28:21.639Z,96981.38
2024-01-10T02:30:48.926Z,96969.53
2024-01-10T02:33:16.102Z,96976.97
2024-01-10T02:35:43.232Z,96972.09
2024-01-10T02:38:10.367Z,96966.03
2024-01-10T02:40:37.661Z,96969.31
2024-01-10T02:43:05.044Z,96971.81
2024-01-10T02:45:32.136Z,96970.22
2024-01-10T02:47:59.306Z,96967.63
2024-01-10T02:50:26.427Z,96969.31
2024-01-10T02:52:53.548Z,96969.25
2024-01-10T02:55:20.666Z,96956.63
2024-01-10T02:57:47.770Z,96954.94
2024-01-10T03:00:15.513Z,96954.25
2024-01-10T03:02:42.613Z,96955.94
2024-01-10T03:05:09.914Z,96949.31
2024-01-10T03:07:37.106Z,96956.00
2024-01-10T03:10:05.444Z,96957.75
2024-01-10T03:12:32.484Z,96965.28
2024-01-10T03:15:00.379Z,96955.38
2024-01-10T03:17:27.495Z,96951.19
2024-01-10T03:19:54.579Z,96957.00
2024-01-10T03:22:21.655Z,96947.03
2024-01-10T03:24:49.237Z,96944.50
2024-01-10T03:27:16.287Z,96951.19
2024-01-10T03:29:43.299Z,96948.63
2024-01-10T03:32:10.496Z,96946.81
2024-01-10T03:34:37.615Z,96951.03
2024-01-10T03:37:05.085Z,96960.41
2024-01-10T03:39:32.197Z,96956.22
2024-01-10T03:41:59.223Z,96952.81
2024-01-10T03:44:28.678Z,96946.03
2024-01-10T03:46:56.172Z,96950.38
2024-01-10T03:49:24.200Z,96950.25
2024-01-10T03:51:51.323Z,96950.16
2024-01-10T03:54:18.377Z,96954.31
2024-01-10T03:56:45.477Z,96955.13
2024-01-10T03:59:12.563Z,96950.06
2024-01-10T04:01:40.839Z,96951.69
2024-01-10T04:04:07.903Z,96954.25
2024-01-10T04:06:36.170Z,96957.59
2024-01-10T04:09:04.197Z,96951.75
2024-01-10T04:11:31.282Z,96956.72
2024-01-10T04:13:58.599Z,96960.03
2024-01-10T04:16:27.357Z,96956.69
2024-01-10T04:18:54.399Z,96949.88
2024-01-10T04:21:22.904Z,96956.56
2024-01-10T04:23:49.973Z,96961.03
2024-01-10T04:26:17.163Z,96955.91
2024-01-10T04:28:44.353Z,96955.84
2024-01-10T04:31:11.557Z,96959.84
2024-01-10T04:33:38.658Z,96951.53
2024-01-10T04:36:06.083Z,96954.94
2024-01-10T04:38:33.380Z,96963.53
2024-01-10T04:41:00.553Z,96958.75
2024-01-10T04:43:27.670Z,96967.72
2024-01-10T04:45:54.769Z,96960.19
2024-01-10T04:48:21.927Z,96960.13
2024-01-10T04:50:49.195Z,96969.38
2024-01-10T04:53:16.322Z,96970.91
2024-01-10T04:55:43.468Z,96959.19
2024-01-10T04:58:10.547Z,96969.09
2024-01-10T05:00:38.010Z,96974.25
2024-01-10T05:03:05.415Z,96969.25
2024-01-10T05:05:32.630Z,96974.25
2024-01-10T05:07:59.786Z,96969.16
2024-01-10T05:10:26.882Z,96973.41
2024-01-10T05:12:53.930Z,96975.84
2024-01-10T05:15:21.117Z,96972.38
2024-01-10T05:17:48.288Z,96975.78
2024-01-10T05:20:15.439Z,96965.84
2024-01-10T05:22:44.729Z,96974.25
2024-01-10T05:25:11.808Z,96975.94
2024-01-10T05:27:38.871Z,96976.69
2024-01-10T05:30:07.059Z,96972.59
2024-01-10T05:32:34.163Z,96981.84
2024-01-10T05:35:01.907Z,96966.94
2024-01-10T05:37:29.049Z,96982.97
2024-01-10T05:39:56.126Z,96977.22
2024-01-10T05:42:23.184Z,96981.38
2024-01-10T05:44:50.215Z,96983.78
2024-01-10T05:47:17.305Z,96983.00
2024-01-10T05:49:44.453Z,96982.09
2024-01-10T05:52:11.791Z,96980.47
2024-01-10T05:54:39.968Z,96978.63
2024-01-10T05:57:07.326Z,96975.31
2024-01-10T05:59:34.367Z,96985.34
2024-01-10T06:02:01.426Z,96985.28
2024-01-10T06:04:29.459Z,96986.97
2024-01-10T06:06:56.540Z,96983.69
2024-01-10T06:09:23.616Z,96982.91
2024-01-10T06:11:51.188Z,96983.75
2024-01-10T06:14:18.902Z,96980.47
2024-01-10T06:16:46.806Z,96990.44
2024-01-10T06:19:13.999Z,96986.25
2024-01-10T06:21:41.159Z,96982.84
2024-01-10T06:24:09.578Z,96984.44
2024-01-10T06:26:36.783Z,96976.94
2024-01-10T06:29:03.935Z,96982.78
2024-01-10T06:31:31.068Z,96985.28
2024-01-10T06:33:58.180Z,96984.66
2024-01-10T06:36:25.584Z,96990.38
2024-01-10T06:38:52.750Z,96978.72
2024-01-10T06:41:25.802Z,96982.00
2024-01-10T06:43:54.324Z,96977.81
2024-01-10T06:46:22.688Z,96975.25
2024-01-10T06:48:49.904Z,96976.78
2024-01-10T06:51:18.078Z,96983.44
2024-01-10T06:53:45.087Z,96984.44
2024-01-10T06:56:12.628Z,96985.28
2024-01-10T06:58:40.859Z,96986.09
2024-01-10T07:01:15.290Z,96991.13
2024-01-10T07:03:42.911Z,96988.63
2024-01-10T07:06:10.263Z,96991.94
2024-01-10T07:08:37.761Z,96988.47
2024-01-10T07:11:05.111Z,96986.81
2024-01-10T07:13:33.032Z,96993.63
2024-01-10T07:16:03.489Z,96994.47
2024-01-10T07:18:31.214Z,96991.06
2024-01-10T07:20:58.471Z,96999.47
2024-01-10T07:23:25.726Z,96997.75
2024-01-10T07:25:53.928Z,96997.00
2024-01-10T07:28:21.902Z,97005.22
2024-01-10T07:30:50.146Z,97007.34
2024-01-10T07:33:17.392Z,97003.78
2024-01-10T07:35:44.970Z,97014.53
2024-01-10T07:38:12.167Z,97016.78
2024-01-10T07:40:39.270Z,97029.00
2024-01-10T07:43:06.341Z,97029.63
2024-01-10T07:45:34.937Z,97031.75
2024-01-10T07:48:02.270Z,97044.63
2024-01-10T07:50:30.269Z,97031.72
2024-01-10T07:52:58.067Z,97039.06
2024-01-10T07:55:25.161Z,97039.56
2024-01-10T07:57:53.317Z,97046.00
2024-01-10T08:00:21.975Z,97044.38
2024-01-10T08:02:50.218Z,97048.56
2024-01-10T08:05:17.543Z,97047.66
2024-01-10T08:07:44.800Z,97055.28
2024-01-10T08:10:12.102Z,97051.69
2024-01-10T08:12:45.843Z,97057.38
2024-01-10T08:15:12.939Z,97058.91
2024-01-10T08:17:40.130Z,97055.06
2024-01-10T08:20:10.265Z,97055.94
2024-01-10T08:22:37.503Z,97060.13
2024-01-10T08:25:06.021Z,97063.38
2024-01-10T08:27:33.142Z,97060.34
2024-01-10T08:30:00.675Z,97060.84
2024-01-10T08:32:27.875Z,97067.19
2024-01-10T08:34:54.946Z,97070.16
2024-01-10T08:37:22.191Z,97060.88
2024-01-10T08:39:49.347Z,97072.59
2024-01-10T08:42:16.581Z,97076.44
2024-01-10T08:44:44.849Z,97075.34
2024-01-10T08:47:12.052Z,97071.25
2024-01-10T08:49:39.749Z,97068.53
2024-01-10T08:52:07.175Z,97073.13
2024-01-10T08:54:35.254Z,97078.06
2024-01-10T08:57:02.309Z,97083.66
2024-01-10T08:59:29.767Z,97086.63
2024-01-10T09:01:57.375Z,97082.81
2024-01-10T09:04:24.438Z,97075.69
2024-01-10T09:06:51.831Z,97082.03
2024-01-10T09:09:22.431Z,97090.09
2024-01-10T09:11:50.056Z,97093.94
2024-01-10T09:14:17.236Z,97082.75
2024-01-10T09:16:44.715Z,97085.72
2024-01-10T09:19:12.370Z,97089.94
2024-01-10T09:21:41.709Z,97097.16
2024-01-10T09:24:21.728Z,97089.63
2024-01-10T09:26:56.217Z,97094.69
2024-01-10T09:29:25.702Z,97088.72
2024-01-10T09:31:53.044Z,97092.50
2024-01-10T09:34:21.646Z,97090.00
2024-01-10T09:36:49.453Z,97097.09
2024-01-10T09:39:18.292Z,97099.75
2024-01-10T09:41:51.746Z,97095.59
2024-01-10T09:44:20.309Z,97088.69
2024-01-10T09:46:54.471Z,97099.47
2024-01-10T09:49:23.915Z,97095.88
2024-01-10T09:51:54.907Z,97095.25
2024-01-10T09:54:27.416Z,97089.00
2024-01-10T09:56:54.999Z,97086.69
2024-01-10T09:59:22.319Z,97081.41
2024-01-10T10:01:49.879Z,97078.78
2024-01-10T10:04:20.368Z,97086.66
2024-01-10T10:06:47.836Z,97091.25
2024-01-10T10:09:17.389Z,97087.72
2024-01-10T10:11:44.787Z,97088.25
2024-01-10T10:14:20.390Z,97090.69
2024-01-10T10:16:47.775Z,97095.28
2024-01-10T10:19:34.219Z,97097.09
2024-01-10T10:22:12.082Z,97097.19
2024-01-10T10:24:41.039Z,97094.72
2024-01-10T10:27:12.972Z,97092.03
2024-01-10T10:29:41.050Z,97090.88
2024-01-10T10:32:10.296Z,97100.72
2024-01-10T10:34:37.604Z,97099.88
2024-01-10T10:37:06.436Z,97102.44
2024-01-10T10:39:33.664Z,97096.91
2024-01-10T10:42:02.734Z,97096.59
2024-01-10T10:44:37.463Z,97098.41
2024-01-10T10:47:13.685Z,97103.38
2024-01-10T10:49:56.525Z,97102.34
2024-01-10T10:52:26.283Z,97092.69
2024-01-10T10:54:58.581Z,97090.22
2024-01-10T10:57:29.129Z,97096.59
2024-01-10T10:59:58.875Z,97097.75
2024-01-10T11:02:30.203Z,97090.22
2024-01-10T11:05:02.838Z,97085.41
2024-01-10T11:07:30.172Z,97088.44
2024-01-10T11:10:02.235Z,97089.72
2024-01-10T11:13:11.942Z,97090.44
2024-01-10T11:16:17.967Z,97097.56
2024-01-10T11:19:12.107Z,97082.78
2024-01-10T11:21:50.930Z,97082.25
2024-01-10T11:24:21.174Z,97080.84
2024-01-10T11:26:48.422Z,97085.59
2024-01-10T11:29:17.259Z,97088.88
2024-01-10T11:31:54.079Z,97090.13
2024-01-10T11:34:28.343Z,97092.63
2024-01-10T11:37:14.252Z,97082.06
2024-01-10T11:39:45.360Z,97089.75
2024-01-10T11:42:13.657Z,97085.38
2024-01-10T11:44:52.258Z,97086.94
2024-01-10T11:47:21.548Z,97080.47
2024-01-10T11:50:00.535Z,97084.84
2024-01-10T11:52:35.978Z,97080.00
2024-01-10T11:55:04.470Z,97072.09
2024-01-10T11:57:33.769Z,97077.06
2024-01-10T12:00:02.214Z,97075.50
2024-01-10T12:02:32.091Z,97078.44
2024-01-10T12:05:00.208Z,97068.22
2024-01-10T12:07:27.564Z,97066.97
2024-01-10T12:09:56.430Z,97064.78
2024-01-10T12:12:23.756Z,97062.13
2024-01-10T12:14:53.192Z,97056.31
2024-01-10T12:17:20.972Z,97048.88
2024-01-10T12:19:49.860Z,97051.94
2024-01-10T12:22:20.128Z,97057.56
2024-01-10T12:24:52.024Z,97064.84
2024-01-10T12:27:23.023Z,97058.41
2024-01-10T12:29:54.135Z,97066.63
2024-01-10T12:32:25.510Z,97066.75
2024-01-10T12:35:03.345Z,97074.63
2024-01-10T12:37:30.739Z,97068.94
2024-01-10T12:39:58.675Z,97058.19
2024-01-10T12:42:26.064Z,97057.63
2024-01-10T12:44:53.146Z,97045.47
2024-01-10T12:47:22.827Z,97055.16
2024-01-10T12:49:51.247Z,97056.66
2024-01-10T12:52:22.654Z,97047.97
2024-01-10T12:54:50.556Z,97053.13
2024-01-10T12:57:17.977Z,97050.34
2024-01-10T12:59:46.762Z,97048.69
2024-01-10T13:02:13.924Z,97044.72
2024-01-10T13:04:41.210Z,97056.03
2024-01-10T13:07:08.393Z,97043.97
2024-01-10T13:09:36.752Z,97041.66
2024-01-10T13:12:05.728Z,97042.22
2024-01-10T13:14:33.485Z,97047.44
2024-01-10T13:17:01.232Z,97046.84
2024-01-10T13:19:28.780Z,97045.91
2024-01-10T13:21:56.826Z,97043.59
2024-01-10T13:24:24.019Z,97048.69
2024-01-10T13:26:51.235Z,97046.16
2024-01-10T13:29:18.427Z,97049.69
2024-01-10T13:31:45.882Z,97049.59
2024-01-10T13:34:13.217Z,97047.09
2024-01-10T13:36:40.885Z,97058.09
2024-01-10T13:39:08.780Z,97051.56
2024-01-10T13:41:36.527Z,97052.34
2024-01-10T13:44:05.257Z,97054.44
2024-01-10T13:46:33.361Z,97051.34
2024-01-10T13:49:03.411Z,97050.66
2024-01-10T13:51:31.479Z,97053.63
2024-01-10T13:53:58.709Z,97054.47
2024-01-10T13:56:26.074Z,97057.97
2024-01-10T13:58:53.140Z,97053.84
2024-01-10T14:01:20.312Z,97063.09
2024-01-10T14:03:47.640Z,97058.50
2024-01-10T14:06:14.967Z,97058.16
2024-01-10T14:08:45.045Z,97069.72
2024-01-10T14:11:12.227Z,97068.06
2024-01-10T14:13:39.331Z,97072.16
2024-01-10T14:16:06.561Z,97064.59
2024-01-10T14:18:34.297Z,97071.81
2024-01-10T14:21:01.618Z,97071.06
2024-01-10T14:23:28.711Z,97071.13
2024-01-10T14:25:55.933Z,97073.75
2024-01-10T14:28:23.895Z,97068.69
2024-01-10T14:30:52.108Z,97077.19
2024-01-10T14:33:21.583Z,97075.84
2024-01-10T14:35:48.966Z,97078.53
2024-01-10T14:38:16.276Z,97070.31
2024-01-10T14:40:43.438Z,97073.75
2024-01-10T14:43:10.490Z,97076.16
2024-01-10T14:45:37.645Z,97072.63
2024-01-10T14:48:05.528Z,97074.47
2024-01-10T14:50:32.790Z,97077.38
2024-01-10T14:52:59.975Z,97072.25
2024-01-10T14:55:27.214Z,97066.16
2024-01-10T14:57:54.295Z,97066.38
2024-01-10T15:00:21.575Z,97059.41
2024-01-10T15:02:49.792Z,97066.19
2024-01-10T15:05:17.518Z,97062.81
2024-01-10T15:07:44.595Z,97064.41
2024-01-10T15:10:11.921Z,97070.50
2024-01-10T15:12:39.093Z,97069.81
2024-01-10T15:15:07.377Z,97069.72
2024-01-10T15:17:35.001Z,97071.63
2024-01-10T15:20:02.227Z,97067.53
2024-01-10T15:22:30.552Z,97080.00
2024-01-10T15:24:57.597Z,97077.75
2024-01-10T15:27:24.690Z,97077.75
2024-01-10T15:29:56.822Z,97081.28
2024-01-10T15:32:34.999Z,97082.31
2024-01-10T15:35:06.733Z,97081.31
2024-01-10T15:37:34.412Z,97087.25
2024-01-10T15:40:02.118Z,97089.22
2024-01-10T15:42:30.012Z,97084.09
2024-01-10T15:44:57.159Z,97089.13
2024-01-10T15:47:25.101Z,97082.50
2024-01-10T15:49:52.759Z,97096.69
2024-01-10T15:52:28.521Z,97093.25
2024-01-10T15:54:56.631Z,97088.28
2024-01-10T15:57:27.085Z,97090.34
2024-01-10T15:59:55.922Z,97085.31
2024-01-10T16:02:23.380Z,97096.22
2024-01-10T16:04:51.475Z,97098.66
2024-01-10T16:07:21.806Z,97100.31
2024-01-10T16:09:49.452Z,97102.75
2024-01-10T16:12:19.106Z,97112.91
2024-01-10T16:14:48.953Z,97107.19
2024-01-10T16:17:19.212Z,97104.72
2024-01-10T16:20:05.862Z,97108.22
2024-01-10T16:22:37.577Z,97110.00
2024-01-10T16:25:06.502Z,97107.72
2024-01-10T16:27:33.575Z,97105.47
2024-01-10T16:30:01.873Z,97112.34
2024-01-10T16:32:30.789Z,97108.00
2024-01-10T16:34:59.593Z,97109.75
2024-01-10T16:37:26.773Z,97117.13
2024-01-10T16:39:54.671Z,97116.25
2024-01-10T16:42:21.935Z,97114.44
2024-01-10T16:44:49.379Z,97118.66
2024-01-10T16:47:16.792Z,97112.75
2024-01-10T16:49:47.021Z,97112.69
2024-01-10T16:52:14.445Z,97107.53
2024-01-10T16:54:41.746Z,97100.16
2024-01-10T16:57:09.826Z,97112.84
2024-01-10T16:59:36.945Z,97110.41
2024-01-10T17:02:04.161Z,97103.53
2024-01-10T17:04:31.621Z,97108.59
2024-01-10T17:06:58.685Z,97109.41
2024-01-10T17:09:28.069Z,97116.06
2024-01-10T17:11:55.137Z,97112.75
2024-01-10T17:14:22.294Z,97112.78
2024-01-10T17:16:49.653Z,97114.50
2024-01-10T17:19:16.834Z,97112.78
2024-01-10T17:21:44.183Z,97114.50
2024-01-10T17:24:11.519Z,97113.69
2024-01-10T17:26:38.703Z,97117.03
2024-01-10T17:29:08.347Z,97122.06
2024-01-10T17:31:35.460Z,97124.59
2024-01-10T17:34:02.860Z,97121.09
2024-01-10T17:36:38.029Z,97114.44
2024-01-10T17:39:06.160Z,97122.09
2024-01-10T17:41:33.861Z,97118.41
2024-01-10T17:44:01.178Z,97109.75
2024-01-10T17:46:28.301Z,97113.03
2024-01-10T17:48:55.570Z,97125.63
2024-01-10T17:51:23.280Z,97121.91
2024-01-10T17:53:50.458Z,97122.19
2024-01-10T17:56:17.734Z,97118.59
2024-01-10T17:58:44.845Z,97119.47
2024-01-10T18:01:12.379Z,97121.44
2024-01-10T18:03:39.513Z,97124.94
2024-01-10T18:06:07.155Z,97124.69
2024-01-10T18:08:34.556Z,97122.75
2024-01-10T18:11:01.830Z,97123.41
2024-01-10T18:13:28.854Z,97121.56
2024-01-10T18:15:55.961Z,97116.44
2024-01-10T18:18:23.929Z,97122.41
2024-01-10T18:20:51.303Z,97117.44
2024-01-10T18:23:18.392Z,97125.84
2024-01-10T18:25:48.140Z,97123.34
2024-01-10T18:28:15.404Z,97124.34
2024-01-10T18:30:42.471Z,97120.31
2024-01-10T18:33:10.699Z,97122.06
2024-01-10T18:35:38.307Z,97122.00
2024-01-10T18:38:05.982Z,97124.53
2024-01-10T18:40:33.109Z,97120.25
2024-01-10T18:43:00.166Z,97125.75
2024-01-10T18:45:27.196Z,97123.09
2024-01-10T18:47:54.534Z,97128.97
2024-01-10T18:50:21.730Z,97127.34
2024-01-10T18:52:48.843Z,97122.34
2024-01-10T18:55:15.913Z,97127.44
2024-01-10T18:57:42.968Z,97124.09
2024-01-10T19:00:13.408Z,97127.44
2024-01-10T19:02:40.487Z,97136.63
2024-01-10T19:05:08.070Z,97129.03
2024-01-10T19:07:35.142Z,97122.41
2024-01-10T19:10:02.879Z,97117.38
2024-01-10T19:12:30.197Z,97121.50
2024-01-10T19:14:57.253Z,97126.88
2024-01-10T19:17:24.445Z,97123.69
2024-01-10T19:19:51.645Z,97127.16
2024-01-10T19:22:18.738Z,97129.06
2024-01-10T19:24:45.818Z,97129.19
2024-01-10T19:27:13.256Z,97132.69
2024-01-10T19:29:40.509Z,97124.16
2024-01-10T19:32:07.556Z,97116.66
2024-01-10T19:34:34.696Z,97126.97
2024-01-10T19:37:02.136Z,97122.00
2024-01-10T19:39:29.260Z,97127.38
2024-01-10T19:41:56.337Z,97132.75
2024-01-10T19:44:23.447Z,97130.22
2024-01-10T19:46:50.793Z,97127.66
2024-01-10T19:49:18.109Z,97118.28
2024-01-10T19:51:48.154Z,97123.28
2024-01-10T19:54:16.164Z,97126.72
2024-01-10T19:56:43.273Z,97133.53
2024-01-10T19:59:10.339Z,97130.16
2024-01-10T20:01:37.362Z,97136.03
2024-01-10T20:04:04.620Z,97136.03
2024-01-10T20:06:31.815Z,97136.78
2024-01-10T20:08:58.952Z,97131.84
2024-01-10T20:11:26.704Z,97140.94
2024-01-10T20:13:53.879Z,97141.31
2024-01-10T20:16:20.941Z,97147.41
2024-01-10T20:18:48.126Z,97146.63
2024-01-10T20:21:16.864Z,97141.00
2024-01-10T20:23:48.497Z,97142.91
2024-01-10T20:26:16.260Z,97145.75
2024-01-10T20:28:43.337Z,97139.25
2024-01-10T20:31:10.948Z,97136.06
2024-01-10T20:33:38.347Z,97137.38
2024-01-10T20:36:06.071Z,97142.69
2024-01-10T20:38:33.256Z,97143.53
2024-01-10T20:41:00.743Z,97152.88
2024-01-10T20:43:28.222Z,97150.59
2024-01-10T20:45:55.535Z,97155.06
2024-01-10T20:48:22.618Z,97153.69
2024-01-10T20:50:49.689Z,97157.19
2024-01-10T20:53:17.244Z,97152.16
2024-01-10T20:55:44.777Z,97162.97
2024-01-10T20:58:12.388Z,97153.00
2024-01-10T21:00:40.444Z,97148.97
2024-01-10T21:03:07.859Z,97144.06
2024-01-10T21:05:35.148Z,97145.03
2024-01-10T21:08:02.313Z,97144.25
2024-01-10T21:10:29.424Z,97141.88
2024-01-10T21:12:56.536Z,97143.59
2024-01-10T21:15:23.744Z,97150.41
2024-01-10T21:17:51.046Z,97153.13
2024-01-10T21:20:18.239Z,97156.63
2024-01-10T21:22:45.283Z,97154.16
2024-01-10T21:25:12.536Z,97151.09
2024-01-10T21:27:41.708Z,97151.03
2024-01-10T21:30:09.623Z,97147.75
2024-01-10T21:32:36.943Z,97151.16
2024-01-10T21:35:04.419Z,97144.53
2024-01-10T21:37:31.599Z,97147.19
2024-01-10T21:39:58.924Z,97143.16
2024-01-10T21:42:27.055Z,97143.25
2024-01-10T21:44:55.240Z,97140.75
2024-01-10T21:47:22.390Z,97135.66
2024-01-10T21:49:49.856Z,97140.75
2024-01-10T21:52:17.005Z,97140.81
2024-01-10T21:54:44.129Z,97150.84
2024-01-10T21:57:11.133Z,97145.13
2024-01-10T21:59:41.690Z,97144.38
2024-01-10T22:02:08.894Z,97139.59
2024-01-10T22:04:36.243Z,97144.88
2024-01-10T22:07:03.617Z,97143.28
2024-01-10T22:09:30.740Z,97139.09
2024-01-10T22:11:57.768Z,97143.38
2024-01-10T22:14:24.819Z,97140.81
2024-01-10T22:16:52.012Z,97142.50
2024-01-10T22:19:19.330Z,97138.31
2024-01-10T22:21:46.571Z,97142.50
2024-01-10T22:24:13.668Z,97144.09
2024-01-10T22:26:40.738Z,97146.75
2024-01-10T22:29:07.834Z,97145.25
2024-01-10T22:31:34.981Z,97144.59
2024-01-10T22:34:02.068Z,97146.91
2024-01-10T22:36:29.207Z,97136.84
2024-01-10T22:38:56.789Z,97141.97
2024-01-10T22:41:23.923Z,97138.81
2024-01-10T22:43:51.035Z,97134.06
2024-01-10T22:46:18.500Z,97132.63
2024-01-10T22:48:45.652Z,97130.19
2024-01-10T22:51:12.922Z,97139.59
2024-01-10T22:53:40.385Z,97133.88
2024-01-10T22:56:07.725Z,97140.63
2024-01-10T22:58:34.768Z,97138.22
2024-01-10T23:01:02.249Z,97136.66
2024-01-10T23:03:33.234Z,97136.72
2024-01-10T23:06:01.930Z,97137.72
2024-01-10T23:08:29.769Z,97131.84
2024-01-10T23:10:58.691Z,97136.81
2024-01-10T23:13:26.054Z,97134.34
2024-01-10T23:15:53.491Z,97134.47
2024-01-10T23:18:22.000Z,97121.25
2024-01-10T23:20:49.757Z,97123.78
2024-01-10T23:23:16.856Z,97126.16
2024-01-10T23:25:44.047Z,97129.38
2024-01-10T23:28:11.134Z,97123.44
2024-01-10T23:30:38.239Z,97123.25
2024-01-10T23:33:05.630Z,97113.84
2024-01-10T23:35:40.677Z,97119.66
2024-01-10T23:38:15.061Z,97112.22
2024-01-10T23:40:42.235Z,97109.66
2024-01-10T23:43:15.771Z,97113.75
2024-01-10T23:45:52.366Z,97110.47
2024-01-10T23:48:19.624Z,97114.59
2024-01-10T23:50:46.761Z,97114.66
2024-01-10T23:53:14.071Z,97116.34
2024-01-10T23:55:41.202Z,97109.69
2024-01-10T23:58:08.421Z,97107.31
